CheckWX is a tool to help pilots better visualize weather data.  It is not intended as a substitute for an official pre-flight weather briefing.

16:57:45 UTC

TRPG TAF
John A. Osborne
Gerald's Park
TAF TRPG 181100Z 1812/1912 10015KT 9999 SCT018

Jun-18@
12:00 UTC

Jun-18 @ 12:00 UTC

Jun-19@
12:00 UTC

Jun-19 @ 12:00 UTC

TAF TRPG 181100Z 1812/1912 10015KT 9999 SCT018
Wind
  • 100° at 15 KTS
Cloud Levels
  • Scattered at 1,800' AGL